< Typhoon 201314 2013 Season Typhoon 201316 >
Typhoon 201315 (KONG-REY)
General InformationDetailed Track InformationTrack Information on Google MapsForecast History on Google MapsAccess Analytics MapList of All Images || NewsDisaster Info.WeblogTrackbackTyphoon FrontTwiphoonTyphoon Now!Typhoon ImaginationDisaster Info. XMLResourceGoogle EarthGE AnimationAtom FeedGeoJSON
Detalied Best Track Wind (Time Zone = UTC)
Year Month Day Hour Lat. Long. Wind (kt) Gust (kt) Direc. of Major Storm Axis Radius of Major Storm Axis (nm) Radius of Minor Storm Axis (nm) Direc. of Major Gale Axis Radius of Major Gale Axis (nm) Radius of Minor Gale Axis (nm) Image
2013 8 25 00 11.3 129.0 0 0 - - - - - - Image
2013 8 25 06 12.1 128.7 0 0 - - - - - - Image
2013 8 25 12 13.5 128.1 0 0 - - - - - - Image
2013 8 25 18 14.8 127.0 0 0 - - - - - - Image
2013 8 26 00 15.4 126.1 0 0 - - - - - - Image
2013 8 26 06 16.0 125.3 35 0 - - - symmetric 120 120 Image
2013 8 26 12 16.9 124.2 35 0 - - - symmetric 120 120 Image
2013 8 26 18 17.6 123.8 40 0 - - - SE 150 120 Image
2013 8 27 00 18.4 124.0 40 0 - - - SE 180 120 Image
2013 8 27 06 19.4 123.9 40 0 - - - SE 180 120 Image
2013 8 27 12 20.0 123.5 45 0 - - - SE 180 120 Image
2013 8 27 18 20.4 123.1 45 0 - - - SE 180 120 Image
2013 8 28 00 20.8 122.8 50 0 - - - SE 200 120 Image
2013 8 28 06 21.9 122.7 50 0 - - - SE 200 150 Image
2013 8 28 09 22.4 122.7 50 0 - - - SE 200 150 Image
2013 8 28 12 22.8 122.5 55 0 symmetric 30 30 SE 200 120 Image
2013 8 28 15 23.2 122.4 55 0 SE 40 20 S 200 120 Image
2013 8 28 18 23.9 122.5 55 0 SE 40 20 S 200 120 Image
2013 8 28 21 24.6 122.5 50 0 - - - S 200 120 Image
2013 8 29 00 25.2 122.5 40 0 - - - SE 180 90 Image
2013 8 29 03 25.7 122.5 35 0 - - - SE 180 90 Image
2013 8 29 06 25.9 122.3 35 0 - - - SE 180 90 Image
2013 8 29 12 26.7 122.1 35 0 - - - SE 180 90 Image
2013 8 29 18 27.2 122.5 35 0 - - - SE 180 90 Image
2013 8 30 00 28.7 123.5 0 0 - - - - - - Image
2013 8 30 06 29.9 124.5 0 0 - - - - - - Image
Japan Meteorological Agency Best Track Data | Correction Date : 2013-09-27
< Typhoon 201314 2013 Season Typhoon 201316 >

Help